Time;durP1;ratioP1;P1;durP2;ratioP2;P2;SDS_P1;SDS_P2;PMS_P1;PMS_P2;Temp;Humidity;BMP_temperature;BMP_pressure;BME280_temperature;BME280_humidity;BME280_pressure;Samples;Min_cycle;Max_cycle;Signal;HPM_P1;HPM_P2
2023/07/31 00:02:07;;;;;;;5.35;2.95;;;16.40;99.90;;;;;;4806192;29;20049;-50
2023/07/31 00:04:33;;;;;;;5.45;3.20;;;16.40;99.90;;;;;;4806119;29;20050;-48
2023/07/31 00:06:58;;;;;;;4.40;2.78;;;16.40;99.90;;;;;;4806106;29;20043;-50
2023/07/31 00:09:24;;;;;;;5.68;3.08;;;16.40;99.90;;;;;;4805324;29;20054;-50
2023/07/31 00:11:50;;;;;;;5.10;2.85;;;16.30;99.90;;;;;;4803878;29;20047;-44
2023/07/31 00:14:15;;;;;;;3.88;2.60;;;16.20;99.90;;;;;;4800722;29;20114;-48
2023/07/31 00:16:41;;;;;;;4.28;2.90;;;16.20;99.90;;;;;;4816975;29;20047;-53
2023/07/31 00:19:07;;;;;;;6.38;2.53;;;16.20;99.90;;;;;;4803951;29;20479;-50
2023/07/31 00:21:32;;;;;;;6.72;2.72;;;16.10;99.90;;;;;;4803214;29;20042;-47
2023/07/31 00:23:58;;;;;;;5.45;2.47;;;16.20;99.90;;;;;;4804456;29;20138;-44
2023/07/31 00:26:24;;;;;;;4.47;2.22;;;16.10;99.90;;;;;;4803873;29;20050;-50
2023/07/31 00:28:49;;;;;;;5.18;2.60;;;16.00;99.90;;;;;;4803401;29;20564;-44
2023/07/31 00:31:15;;;;;;;4.07;1.65;;;16.00;99.90;;;;;;4803221;29;20042;-44
2023/07/31 00:33:41;;;;;;;3.63;2.20;;;16.00;99.90;;;;;;4803937;29;20130;-45
2023/07/31 00:36:06;;;;;;;5.65;2.40;;;16.00;99.90;;;;;;4802381;29;20067;-47
2023/07/31 00:38:32;;;;;;;3.45;1.90;;;15.90;99.90;;;;;;4802904;29;20113;-48
2023/07/31 00:40:58;;;;;;;3.05;1.52;;;15.90;99.90;;;;;;4802574;29;20047;-47
2023/07/31 00:43:24;;;;;;;2.88;1.33;;;15.90;99.90;;;;;;4803537;29;20483;-48
2023/07/31 00:45:50;;;;;;;3.08;1.70;;;16.00;99.90;;;;;;4802102;29;20391;-50
2023/07/31 00:48:16;;;;;;;3.83;1.60;;;16.00;99.90;;;;;;4801967;29;20060;-49
2023/07/31 00:50:41;;;;;;;4.05;1.45;;;16.00;99.90;;;;;;4804090;29;20364;-50
2023/07/31 00:53:07;;;;;;;4.03;1.40;;;15.90;99.90;;;;;;4800736;29;20047;-48
2023/07/31 00:55:33;;;;;;;2.28;1.08;;;15.90;99.90;;;;;;4787304;29;20046;-48
2023/07/31 00:57:59;;;;;;;3.03;1.00;;;15.90;99.90;;;;;;4801824;29;20043;-48
2023/07/31 01:00:24;;;;;;;2.33;1.02;;;15.80;99.90;;;;;;4800605;29;20035;-50
2023/07/31 01:02:51;;;;;;;2.67;1.25;;;16.00;99.90;;;;;;4803682;29;20054;-52
2023/07/31 01:05:23;;;;;;;3.42;1.20;;;15.90;99.90;;;;;;4787344;29;20054;-51
2023/07/31 01:08:10;;;;;;;3.00;1.27;;;16.00;99.90;;;;;;4801536;29;20150;-53
2023/07/31 01:10:45;;;;;;;3.97;1.77;;;15.90;99.90;;;;;;4803045;29;20043;-48
2023/07/31 01:13:11;;;;;;;2.88;1.30;;;16.10;99.90;;;;;;4802519;29;20523;-52
2023/07/31 01:15:38;;;;;;;2.92;1.23;;;16.10;99.90;;;;;;4801405;29;20043;-48
2023/07/31 01:18:04;;;;;;;3.13;1.50;;;16.00;99.90;;;;;;4805125;29;20043;-50
2023/07/31 01:20:30;;;;;;;3.10;1.38;;;15.90;99.90;;;;;;4804775;29;20115;-51
2023/07/31 01:23:31;;;;;;;4.25;1.58;;;16.00;99.90;;;;;;4804764;29;20086;-53
2023/07/31 01:26:18;;;;;;;2.58;1.35;;;15.80;99.90;;;;;;4804873;29;20046;-51
2023/07/31 01:28:53;;;;;;;3.47;2.00;;;16.00;99.90;;;;;;4805106;29;20039;-53
2023/07/31 01:31:23;;;;;;;3.80;1.80;;;16.00;99.90;;;;;;4803279;29;20116;-52
2023/07/31 01:33:52;;;;;;;4.35;1.70;;;16.20;99.90;;;;;;4804214;29;20054;-55
2023/07/31 01:36:18;;;;;;;4.72;2.00;;;16.10;99.90;;;;;;4805010;29;20046;-53
2023/07/31 01:38:44;;;;;;;3.40;1.42;;;16.00;99.90;;;;;;4818083;29;20055;-52
2023/07/31 01:41:10;;;;;;;4.65;2.25;;;16.00;99.90;;;;;;4804465;29;20059;-55
2023/07/31 01:43:35;;;;;;;6.63;2.00;;;16.20;99.90;;;;;;4804355;29;20133;-54
2023/07/31 01:46:01;;;;;;;2.85;1.40;;;16.10;99.90;;;;;;4803377;29;20133;-49
2023/07/31 01:48:27;;;;;;;4.80;1.92;;;16.10;99.90;;;;;;4802696;29;20043;-49
2023/07/31 01:50:52;;;;;;;3.92;2.10;;;16.20;99.90;;;;;;4803188;29;20054;-50
2023/07/31 01:53:18;;;;;;;3.70;2.15;;;16.20;99.90;;;;;;4803386;29;20047;-51
2023/07/31 01:55:44;;;;;;;3.70;2.22;;;16.00;99.90;;;;;;4804600;29;20046;-52
2023/07/31 01:58:10;;;;;;;4.25;2.50;;;16.20;99.90;;;;;;4804294;29;20038;-49
2023/07/31 02:00:35;;;;;;;4.35;2.15;;;16.20;99.90;;;;;;4804420;29;20043;-54
2023/07/31 02:03:01;;;;;;;5.72;2.50;;;16.10;99.90;;;;;;4804425;29;20047;-51
2023/07/31 02:05:27;;;;;;;3.55;2.00;;;16.10;99.90;;;;;;4804433;29;20039;-51
2023/07/31 02:07:52;;;;;;;3.72;2.03;;;16.30;99.90;;;;;;4804177;29;20073;-53
2023/07/31 02:10:18;;;;;;;3.42;1.52;;;16.30;99.90;;;;;;4818069;29;20042;-49
2023/07/31 02:12:44;;;;;;;3.53;1.70;;;16.10;99.90;;;;;;4803825;29;20399;-54
2023/07/31 02:15:09;;;;;;;5.03;1.92;;;16.20;99.90;;;;;;4804227;29;20038;-52
2023/07/31 02:17:35;;;;;;;5.15;2.00;;;16.40;99.90;;;;;;4786878;29;20055;-49
2023/07/31 02:20:01;;;;;;;3.65;1.85;;;16.30;99.90;;;;;;4803413;29;20173;-51
2023/07/31 02:22:27;;;;;;;3.42;1.52;;;16.30;99.90;;;;;;4802322;29;20111;-54
2023/07/31 02:24:52;;;;;;;2.95;1.60;;;16.40;99.90;;;;;;4804131;29;20431;-50
2023/07/31 02:27:18;;;;;;;5.82;1.83;;;16.40;99.90;;;;;;4803916;29;20138;-51
2023/07/31 02:29:44;;;;;;;5.00;2.35;;;16.60;99.90;;;;;;4804090;29;20043;-52
2023/07/31 02:32:09;;;;;;;4.85;1.80;;;16.40;99.90;;;;;;4804007;29;20050;-52
2023/07/31 02:34:35;;;;;;;6.13;2.63;;;16.60;99.90;;;;;;4803675;29;20061;-48
2023/07/31 02:37:01;;;;;;;5.35;2.70;;;16.40;99.90;;;;;;4786507;29;20132;-47
2023/07/31 02:39:26;;;;;;;4.82;2.70;;;16.40;99.90;;;;;;4804074;29;20043;-52
2023/07/31 02:41:52;;;;;;;4.90;2.60;;;16.50;99.90;;;;;;4803912;29;20133;-50
2023/07/31 02:44:18;;;;;;;6.40;2.80;;;16.50;99.90;;;;;;4803828;29;20078;-51
2023/07/31 02:46:43;;;;;;;5.45;3.38;;;16.60;99.90;;;;;;4803911;29;20051;-49
2023/07/31 02:49:09;;;;;;;6.10;2.78;;;16.80;99.90;;;;;;4803815;29;20480;-54
2023/07/31 02:51:35;;;;;;;5.82;2.83;;;16.80;99.90;;;;;;4807382;29;20043;-50
2023/07/31 02:54:00;;;;;;;5.35;2.97;;;16.50;99.90;;;;;;4807352;29;20047;-50
2023/07/31 02:56:26;;;;;;;7.78;2.55;;;16.50;99.90;;;;;;4807410;29;20035;-50
2023/07/31 02:58:52;;;;;;;6.07;3.03;;;16.50;99.90;;;;;;4807423;29;20457;-50
2023/07/31 03:01:17;;;;;;;7.40;3.10;;;16.50;99.90;;;;;;4807447;29;20042;-48
2023/07/31 03:03:43;;;;;;;7.22;3.28;;;16.70;99.90;;;;;;4805764;29;20042;-50
2023/07/31 03:06:09;;;;;;;7.85;3.00;;;16.50;99.90;;;;;;4807246;29;20559;-55
2023/07/31 03:08:34;;;;;;;6.72;3.53;;;16.80;99.90;;;;;;4807143;29;20050;-49
2023/07/31 03:11:00;;;;;;;7.45;3.47;;;16.50;99.90;;;;;;4807026;29;20395;-52
2023/07/31 03:13:26;;;;;;;9.35;3.97;;;16.50;99.90;;;;;;4807023;29;20053;-54
2023/07/31 03:15:51;;;;;;;6.95;3.30;;;16.50;99.90;;;;;;4805793;29;20046;-50
2023/07/31 03:18:17;;;;;;;8.38;3.33;;;16.60;99.90;;;;;;4807172;29;20065;-53
2023/07/31 03:20:44;;;;;;;7.85;3.13;;;16.80;99.90;;;;;;4806768;29;20042;-50
2023/07/31 03:23:09;;;;;;;10.48;3.78;;;16.60;99.90;;;;;;4803922;29;20045;-49
2023/07/31 03:25:35;;;;;;;7.03;3.10;;;16.80;99.90;;;;;;4806946;29;20050;-52
2023/07/31 03:28:01;;;;;;;10.27;3.90;;;16.90;99.90;;;;;;4806804;29;20429;-52
2023/07/31 03:30:27;;;;;;;9.90;3.70;;;16.80;99.90;;;;;;4806909;29;20038;-53
2023/07/31 03:32:52;;;;;;;6.47;2.90;;;16.70;99.90;;;;;;4806422;29;20517;-52
2023/07/31 03:35:18;;;;;;;8.95;3.45;;;16.80;99.90;;;;;;4804072;29;20135;-48
2023/07/31 03:37:44;;;;;;;10.90;3.72;;;16.60;99.90;;;;;;4805645;29;20487;-51
2023/07/31 03:40:10;;;;;;;7.63;3.22;;;16.70;99.90;;;;;;4805395;29;20043;-48
2023/07/31 03:42:36;;;;;;;9.40;4.20;;;16.90;99.90;;;;;;4805583;29;20531;-52
2023/07/31 03:45:02;;;;;;;10.60;4.55;;;16.60;99.90;;;;;;4805252;29;20093;-51
2023/07/31 03:47:29;;;;;;;9.27;4.10;;;16.90;99.90;;;;;;4805662;29;20043;-51
2023/07/31 03:49:54;;;;;;;7.35;4.07;;;16.60;99.90;;;;;;4805159;29;20543;-53
2023/07/31 03:52:20;;;;;;;11.10;5.03;;;16.50;99.90;;;;;;4805297;29;20138;-48
2023/07/31 03:54:46;;;;;;;11.25;5.35;;;16.70;99.90;;;;;;4804222;29;20047;-51
2023/07/31 03:57:11;;;;;;;12.13;4.45;;;16.90;99.90;;;;;;4805193;29;20126;-50
2023/07/31 03:59:39;;;;;;;15.93;5.30;;;16.70;99.90;;;;;;4805229;29;20095;-52
2023/07/31 04:02:05;;;;;;;18.08;6.32;;;16.60;99.90;;;;;;4803834;29;20047;-52
2023/07/31 04:04:31;;;;;;;21.27;6.97;;;16.70;99.90;;;;;;4805429;29;20443;-51
2023/07/31 04:06:56;;;;;;;22.55;7.93;;;16.60;99.90;;;;;;4802433;29;20154;-54
2023/07/31 04:09:22;;;;;;;24.35;8.95;;;16.70;99.90;;;;;;4804918;29;20396;-53
2023/07/31 04:11:48;;;;;;;37.42;8.88;;;17.00;99.90;;;;;;4804821;29;20483;-50
2023/07/31 04:14:13;;;;;;;36.83;9.15;;;16.70;99.90;;;;;;4802940;29;20043;-50
2023/07/31 04:16:39;;;;;;;31.92;7.50;;;16.60;99.90;;;;;;4805090;29;20043;-49
2023/07/31 04:19:05;;;;;;;29.02;9.95;;;16.90;99.90;;;;;;4804532;29;20057;-52
2023/07/31 04:21:30;;;;;;;27.52;10.23;;;17.00;99.90;;;;;;4804594;29;20035;-49
2023/07/31 04:23:56;;;;;;;29.63;10.45;;;16.60;99.90;;;;;;4804699;29;20062;-50
2023/07/31 04:26:22;;;;;;;28.75;10.15;;;16.80;99.90;;;;;;4805089;29;20039;-53
2023/07/31 04:28:48;;;;;;;22.80;8.63;;;16.70;99.90;;;;;;4803525;29;20038;-53
2023/07/31 04:31:13;;;;;;;26.10;6.68;;;16.60;99.90;;;;;;4804894;29;20068;-52
2023/07/31 04:33:39;;;;;;;26.80;9.65;;;16.60;99.90;;;;;;4766750;29;1109609;-47
2023/07/31 04:36:05;;;;;;;26.05;9.50;;;16.50;99.90;;;;;;4804753;29;20648;-52
2023/07/31 04:38:31;;;;;;;28.23;10.40;;;16.70;99.90;;;;;;4804219;29;20086;-53
2023/07/31 04:40:56;;;;;;;32.03;10.38;;;16.70;99.90;;;;;;4805230;29;20479;-50
2023/07/31 04:43:22;;;;;;;33.67;11.43;;;16.90;99.90;;;;;;4805709;29;20046;-51
2023/07/31 04:45:48;;;;;;;32.13;11.10;;;16.90;99.90;;;;;;4805370;29;20043;-54
2023/07/31 04:48:14;;;;;;;28.98;10.57;;;16.60;99.90;;;;;;4805947;29;20031;-50
2023/07/31 04:50:40;;;;;;;30.27;10.65;;;17.00;99.90;;;;;;4805056;29;20088;-48
2023/07/31 04:53:06;;;;;;;28.02;9.88;;;16.80;99.90;;;;;;4804201;29;20453;-53
2023/07/31 04:55:31;;;;;;;36.67;11.07;;;17.00;99.90;;;;;;4805462;29;20046;-53
2023/07/31 04:57:59;;;;;;;39.53;11.60;;;16.70;99.90;;;;;;4803988;29;20475;-54
2023/07/31 05:00:24;;;;;;;36.20;10.75;;;16.80;99.90;;;;;;4803817;29;20047;-49
2023/07/31 05:02:50;;;;;;;29.02;10.68;;;16.60;99.90;;;;;;4805204;29;20123;-53
2023/07/31 05:05:16;;;;;;;38.13;12.55;;;16.80;99.90;;;;;;4805133;29;20043;-50
2023/07/31 05:07:41;;;;;;;34.45;11.73;;;16.80;99.90;;;;;;4787952;29;20112;-52
2023/07/31 05:10:07;;;;;;;33.47;10.77;;;16.80;99.90;;;;;;4805107;29;20377;-51
2023/07/31 05:12:33;;;;;;;32.58;10.80;;;17.00;99.90;;;;;;4804486;29;20043;-52
2023/07/31 05:14:59;;;;;;;47.25;13.05;;;17.00;99.90;;;;;;4805324;29;20049;-54
2023/07/31 05:17:24;;;;;;;41.03;13.63;;;17.10;99.90;;;;;;4804745;29;20411;-50
2023/07/31 05:19:50;;;;;;;38.08;11.73;;;16.70;99.90;;;;;;4804788;29;20049;-52
2023/07/31 05:22:16;;;;;;;41.97;9.15;;;17.10;99.90;;;;;;4803472;29;20609;-48
2023/07/31 05:24:41;;;;;;;33.60;11.45;;;17.10;99.90;;;;;;4788477;29;20055;-49
2023/07/31 05:27:08;;;;;;;29.90;11.18;;;17.10;99.90;;;;;;4803731;29;20407;-55
2023/07/31 05:29:33;;;;;;;34.70;8.85;;;17.10;99.90;;;;;;4803716;29;20372;-52
2023/07/31 05:31:59;;;;;;;39.63;9.45;;;17.10;99.90;;;;;;4802228;29;20072;-50
2023/07/31 05:34:25;;;;;;;32.92;10.98;;;17.10;99.90;;;;;;4804470;29;20180;-49
2023/07/31 05:36:50;;;;;;;32.75;11.93;;;16.90;99.90;;;;;;4803867;29;20094;-55
2023/07/31 05:39:18;;;;;;;33.70;11.30;;;17.20;99.90;;;;;;4804773;29;20109;-51
2023/07/31 05:41:43;;;;;;;32.13;12.25;;;17.20;99.90;;;;;;4804783;29;20073;-48
2023/07/31 05:44:09;;;;;;;27.23;11.55;;;17.20;99.90;;;;;;4803436;29;20038;-54
2023/07/31 05:46:35;;;;;;;35.20;11.63;;;16.90;99.90;;;;;;4804504;29;20085;-52
2023/07/31 05:49:01;;;;;;;36.45;12.43;;;16.90;99.90;;;;;;4804208;29;20122;-51
2023/07/31 05:51:27;;;;;;;34.90;12.97;;;17.00;99.90;;;;;;4802833;29;20050;-52
2023/07/31 05:53:53;;;;;;;30.35;12.35;;;16.90;99.90;;;;;;4804605;29;20070;-53
2023/07/31 05:56:19;;;;;;;27.80;10.73;;;17.40;99.90;;;;;;4804190;29;20095;-49
2023/07/31 05:58:44;;;;;;;31.50;11.60;;;17.10;99.90;;;;;;4802821;29;20058;-49
2023/07/31 06:01:10;;;;;;;32.53;12.38;;;17.20;99.90;;;;;;4803297;29;20043;-49
2023/07/31 06:03:36;;;;;;;32.08;11.90;;;17.30;99.90;;;;;;4804054;29;20471;-52
2023/07/31 06:06:02;;;;;;;28.95;8.93;;;16.90;99.90;;;;;;4804448;29;20043;-51
2023/07/31 06:08:27;;;;;;;28.45;11.85;;;16.90;99.90;;;;;;4803861;29;20060;-48
2023/07/31 06:10:53;;;;;;;35.75;13.90;;;16.90;99.90;;;;;;4800014;29;20384;-51
2023/07/31 06:13:19;;;;;;;35.03;12.98;;;17.00;99.90;;;;;;4804077;29;20046;-50
2023/07/31 06:15:44;;;;;;;28.00;12.63;;;16.80;99.90;;;;;;4804327;29;20437;-52
2023/07/31 06:18:10;;;;;;;36.00;14.65;;;17.00;99.90;;;;;;4804058;29;20105;-51
2023/07/31 06:20:36;;;;;;;31.80;14.95;;;17.10;99.90;;;;;;4803868;29;20476;-48
2023/07/31 06:23:03;;;;;;;29.98;13.55;;;16.80;99.90;;;;;;4803558;29;20049;-51
2023/07/31 06:25:29;;;;;;;33.72;13.98;;;16.90;99.90;;;;;;4804164;29;20443;-48
2023/07/31 06:27:55;;;;;;;27.65;10.00;;;17.20;99.90;;;;;;4802317;29;20130;-52
2023/07/31 06:30:20;;;;;;;25.60;12.27;;;17.10;99.90;;;;;;4817481;29;20049;-53
2023/07/31 06:32:46;;;;;;;21.13;10.80;;;17.10;99.90;;;;;;4794650;29;20476;-54
2023/07/31 06:35:12;;;;;;;20.08;9.80;;;17.20;99.90;;;;;;4787044;29;20055;-49
2023/07/31 06:37:40;;;;;;;19.90;9.52;;;17.20;99.90;;;;;;4785658;29;20121;-52
2023/07/31 06:40:08;;;;;;;20.13;8.80;;;17.10;99.90;;;;;;4790112;29;20055;-48
2023/07/31 06:42:35;;;;;;;17.67;7.65;;;16.90;99.90;;;;;;4785725;29;20051;-47
2023/07/31 06:45:04;;;;;;;17.52;8.07;;;17.10;99.90;;;;;;4785490;29;20108;-50
2023/07/31 06:47:29;;;;;;;13.48;6.70;;;17.00;99.90;;;;;;4785120;29;20465;-49
2023/07/31 06:49:56;;;;;;;13.25;6.68;;;17.00;99.90;;;;;;4783584;29;20162;-49
2023/07/31 06:52:21;;;;;;;12.93;5.95;;;16.80;99.90;;;;;;4785516;29;20057;-51
2023/07/31 06:55:18;;;;;;;12.93;5.45;;;17.10;99.90;;;;;;4787174;29;20047;-51
2023/07/31 06:57:43;;;;;;;17.73;6.28;;;17.10;99.90;;;;;;4785615;29;20115;-49
2023/07/31 07:00:10;;;;;;;16.27;5.38;;;16.80;99.90;;;;;;4791417;29;20545;-50
2023/07/31 07:02:36;;;;;;;17.05;6.80;;;17.10;99.90;;;;;;4800114;29;20057;-48
2023/07/31 07:05:02;;;;;;;13.50;6.18;;;17.10;99.90;;;;;;4785844;29;20043;-50
2023/07/31 07:07:28;;;;;;;11.48;5.55;;;17.10;99.90;;;;;;4786916;29;20119;-49
2023/07/31 07:09:53;;;;;;;11.82;6.00;;;17.20;99.90;;;;;;4785770;29;20055;-47
2023/07/31 07:12:19;;;;;;;12.85;5.90;;;16.90;99.90;;;;;;4799244;29;20047;-52
2023/07/31 07:14:47;;;;;;;11.57;6.05;;;16.80;99.90;;;;;;4786600;29;20053;-48
2023/07/31 07:17:13;;;;;;;9.65;5.38;;;17.10;99.90;;;;;;4791575;29;20114;-50
2023/07/31 07:19:42;;;;;;;13.23;5.68;;;16.80;99.90;;;;;;4785845;29;20135;-49
2023/07/31 07:22:08;;;;;;;12.70;5.70;;;16.80;99.90;;;;;;4786322;29;20043;-47
2023/07/31 07:24:33;;;;;;;8.52;4.05;;;16.80;99.90;;;;;;4785098;29;20039;-51
2023/07/31 07:26:59;;;;;;;9.65;4.45;;;17.10;99.90;;;;;;4779207;29;20039;-48
2023/07/31 07:29:25;;;;;;;8.48;4.85;;;17.00;99.90;;;;;;4786396;29;20426;-50
2023/07/31 07:31:50;;;;;;;7.38;3.10;;;17.20;99.90;;;;;;4786750;29;20515;-47
2023/07/31 07:34:16;;;;;;;7.72;4.53;;;17.30;99.90;;;;;;4791865;29;20070;-52
2023/07/31 07:36:42;;;;;;;9.70;4.20;;;17.10;99.90;;;;;;4788528;29;20074;-50
2023/07/31 07:39:10;;;;;;;9.30;3.75;;;16.90;99.90;;;;;;4795483;29;20043;-49
2023/07/31 07:41:36;;;;;;;11.52;4.57;;;17.00;99.90;;;;;;4788653;29;20036;-49
2023/07/31 07:44:01;;;;;;;9.70;4.95;;;17.20;99.90;;;;;;4789672;29;20091;-47
2023/07/31 07:46:28;;;;;;;7.60;4.03;;;17.10;99.90;;;;;;4788579;29;20484;-48
2023/07/31 07:48:54;;;;;;;8.80;4.70;;;16.90;99.90;;;;;;4787700;29;20506;-49
2023/07/31 07:51:19;;;;;;;7.65;4.35;;;17.20;99.90;;;;;;4787495;29;20126;-49
2023/07/31 07:53:45;;;;;;;11.00;4.65;;;17.30;99.90;;;;;;4787219;29;20047;-49
2023/07/31 07:56:11;;;;;;;8.55;5.00;;;16.90;99.90;;;;;;4788267;29;20039;-50
2023/07/31 07:58:36;;;;;;;8.57;5.60;;;17.00;99.90;;;;;;4788317;29;20042;-49
2023/07/31 08:01:02;;;;;;;7.97;3.53;;;17.50;99.90;;;;;;4787496;29;20042;-51
2023/07/31 08:03:28;;;;;;;8.35;3.60;;;17.40;99.90;;;;;;4799315;29;20115;-46
2023/07/31 08:06:00;;;;;;;7.32;4.50;;;17.20;99.90;;;;;;4794479;29;20050;-50
2023/07/31 08:08:27;;;;;;;7.22;4.18;;;17.60;99.90;;;;;;4792773;29;20046;-51
2023/07/31 08:10:53;;;;;;;8.90;4.38;;;17.20;99.90;;;;;;4794599;29;20061;-53
2023/07/31 08:13:19;;;;;;;6.80;3.72;;;17.40;99.90;;;;;;4802646;29;20043;-52
2023/07/31 08:15:44;;;;;;;9.60;4.10;;;17.60;99.90;;;;;;4801168;29;20043;-48
2023/07/31 08:18:11;;;;;;;5.57;2.83;;;17.60;99.90;;;;;;4801681;29;20043;-49
2023/07/31 08:20:37;;;;;;;8.55;3.90;;;17.60;99.90;;;;;;4802370;29;20035;-49
2023/07/31 08:23:03;;;;;;;6.28;3.97;;;17.60;99.90;;;;;;4803002;29;20091;-53
2023/07/31 08:25:29;;;;;;;6.05;3.25;;;17.30;99.90;;;;;;4802346;29;20039;-49
2023/07/31 08:27:55;;;;;;;5.43;3.35;;;17.20;99.90;;;;;;4801750;29;20130;-51
2023/07/31 08:30:21;;;;;;;7.45;4.10;;;17.60;99.90;;;;;;4801748;29;20054;-49
2023/07/31 08:32:47;;;;;;;6.07;4.10;;;17.70;99.90;;;;;;4802034;29;20494;-49
2023/07/31 08:35:13;;;;;;;6.93;3.28;;;17.80;99.90;;;;;;4801716;29;20058;-49
2023/07/31 08:37:39;;;;;;;6.70;3.25;;;17.50;99.90;;;;;;4803743;29;20097;-49
2023/07/31 08:40:05;;;;;;;5.20;3.03;;;17.80;99.90;;;;;;4800643;29;20050;-46
2023/07/31 08:42:32;;;;;;;7.13;3.80;;;17.40;99.90;;;;;;4786837;29;20055;-48
2023/07/31 08:44:59;;;;;;;5.90;3.25;;;17.70;99.90;;;;;;4787691;29;20108;-46
2023/07/31 08:47:27;;;;;;;5.80;3.75;;;17.70;99.90;;;;;;4794339;29;20503;-47
2023/07/31 08:49:54;;;;;;;7.07;3.35;;;17.80;99.90;;;;;;4787501;29;20074;-48
2023/07/31 08:52:20;;;;;;;7.70;3.53;;;17.90;99.90;;;;;;4787590;29;20054;-47
2023/07/31 08:54:46;;;;;;;5.78;3.22;;;17.60;99.90;;;;;;4787972;29;20613;-46
2023/07/31 08:57:12;;;;;;;7.85;3.70;;;17.90;99.90;;;;;;4795444;29;20074;-48
2023/07/31 08:59:39;;;;;;;7.43;3.45;;;18.10;99.90;;;;;;4792671;29;20480;-49
2023/07/31 09:02:08;;;;;;;5.70;3.10;;;17.60;99.90;;;;;;4785594;29;20668;-54
2023/07/31 09:04:34;;;;;;;5.18;3.05;;;17.80;99.90;;;;;;4787896;29;20047;-51
2023/07/31 09:07:03;;;;;;;5.80;3.50;;;17.80;99.90;;;;;;4786950;29;20053;-50
2023/07/31 09:09:29;;;;;;;5.78;3.08;;;17.70;99.90;;;;;;4785379;29;20103;-49
2023/07/31 09:11:55;;;;;;;5.25;2.60;;;17.80;99.90;;;;;;4788147;29;20046;-47
2023/07/31 09:14:22;;;;;;;4.68;2.38;;;18.20;99.90;;;;;;4789281;29;20506;-46
2023/07/31 09:16:59;;;;;;;6.55;3.15;;;17.90;99.90;;;;;;4787957;29;20039;-49
2023/07/31 09:19:37;;;;;;;3.47;2.55;;;18.00;99.90;;;;;;4786261;29;20118;-48
2023/07/31 09:22:04;;;;;;;4.95;3.10;;;18.00;99.90;;;;;;4787311;29;20039;-49
2023/07/31 09:24:31;;;;;;;5.57;3.10;;;17.90;99.90;;;;;;4786782;29;20097;-48
2023/07/31 09:26:58;;;;;;;4.55;2.92;;;18.20;99.90;;;;;;4793204;29;20050;-49
2023/07/31 09:29:26;;;;;;;4.50;3.20;;;18.40;99.90;;;;;;4786288;29;20039;-47
2023/07/31 09:31:53;;;;;;;5.18;3.10;;;18.30;99.90;;;;;;4786340;29;20110;-45
2023/07/31 09:34:19;;;;;;;5.18;3.25;;;18.40;99.90;;;;;;4786940;29;20416;-47
2023/07/31 09:36:47;;;;;;;4.22;2.80;;;18.50;99.90;;;;;;4786597;29;20043;-46
2023/07/31 09:39:15;;;;;;;5.30;2.95;;;18.20;99.90;;;;;;4785129;29;20087;-46
2023/07/31 09:41:53;;;;;;;5.68;3.25;;;18.60;99.90;;;;;;4787976;29;20054;-47
2023/07/31 09:44:19;;;;;;;4.05;2.60;;;18.30;99.90;;;;;;4786748;29;20131;-52
2023/07/31 09:46:45;;;;;;;4.85;3.50;;;18.20;99.90;;;;;;4788061;29;20039;-51
2023/07/31 09:49:12;;;;;;;3.97;2.53;;;18.70;99.90;;;;;;4787980;29;20039;-50
2023/07/31 09:51:38;;;;;;;4.30;2.90;;;18.60;99.90;;;;;;4786857;29;20365;-52
2023/07/31 09:54:10;;;;;;;5.05;3.50;;;18.50;99.90;;;;;;4783271;29;20074;-51
2023/07/31 09:56:41;;;;;;;4.35;3.08;;;18.70;99.90;;;;;;4786987;29;20031;-45
2023/07/31 09:59:09;;;;;;;4.80;2.70;;;18.80;99.90;;;;;;4785826;29;20125;-46
2023/07/31 10:01:35;;;;;;;3.53;2.40;;;18.90;99.90;;;;;;4789953;29;20066;-49
2023/07/31 10:04:03;;;;;;;4.85;3.05;;;18.90;99.90;;;;;;4786545;29;20376;-47
2023/07/31 10:06:29;;;;;;;4.78;2.65;;;18.90;99.90;;;;;;4785624;29;20043;-48
2023/07/31 10:08:55;;;;;;;4.13;2.35;;;18.60;99.90;;;;;;4789042;29;20043;-50
2023/07/31 10:11:23;;;;;;;3.55;2.20;;;18.60;99.90;;;;;;4800360;29;20062;-47
2023/07/31 10:13:50;;;;;;;4.95;2.28;;;19.10;99.90;;;;;;4800316;29;20043;-46
2023/07/31 10:16:16;;;;;;;3.15;2.00;;;19.30;99.90;;;;;;4794452;29;20126;-48
2023/07/31 10:18:43;;;;;;;3.20;1.73;;;18.90;99.90;;;;;;4816030;29;20045;-47
2023/07/31 10:21:10;;;;;;;2.97;1.95;;;18.90;99.90;;;;;;4800846;29;21053;-51
2023/07/31 10:23:36;;;;;;;2.50;1.60;;;18.90;99.90;;;;;;4801782;29;20491;-45
2023/07/31 10:26:03;;;;;;;2.38;1.40;;;18.90;99.90;;;;;;4799157;29;20047;-50
2023/07/31 10:28:31;;;;;;;2.65;1.40;;;19.20;99.90;;;;;;4801446;29;20059;-49
2023/07/31 10:30:57;;;;;;;2.60;1.60;;;19.10;99.90;;;;;;4801126;29;20047;-50
2023/07/31 10:33:23;;;;;;;3.05;1.83;;;19.00;99.90;;;;;;4800008;29;20101;-49
2023/07/31 10:35:49;;;;;;;4.65;2.42;;;19.00;99.90;;;;;;4801764;29;20457;-50
2023/07/31 10:38:15;;;;;;;3.70;2.70;;;19.50;99.90;;;;;;4815774;29;20043;-48
2023/07/31 10:40:41;;;;;;;4.22;2.90;;;19.20;99.90;;;;;;4801645;29;20441;-49
2023/07/31 10:43:10;;;;;;;3.15;2.50;;;19.00;99.90;;;;;;4801406;29;20085;-51
2023/07/31 10:45:38;;;;;;;4.55;2.70;;;19.40;99.90;;;;;;4800950;29;20051;-48
2023/07/31 10:48:13;;;;;;;3.15;2.20;;;19.40;99.90;;;;;;4800111;29;20167;-52
2023/07/31 10:50:49;;;;;;;3.28;1.90;;;19.40;99.90;;;;;;4800930;29;20047;-49
2023/07/31 10:53:27;;;;;;;4.32;2.10;;;19.20;99.90;;;;;;4801139;29;20055;-51
2023/07/31 10:55:57;;;;;;;2.80;1.95;;;19.10;99.90;;;;;;4801586;29;20043;-51
2023/07/31 10:58:23;;;;;;;2.80;2.20;;;19.50;99.90;;;;;;4800970;29;20072;-51
2023/07/31 11:00:49;;;;;;;4.15;2.10;;;18.90;99.90;;;;;;4801025;29;20531;-48
2023/07/31 11:03:20;;;;;;;2.60;1.90;;;19.30;99.90;;;;;;4801075;29;20653;-53
2023/07/31 11:05:55;;;;;;;2.47;1.80;;;19.50;99.90;;;;;;4801653;29;20043;-51
2023/07/31 11:08:24;;;;;;;1.67;1.10;;;19.40;99.90;;;;;;4800260;29;20130;-50
2023/07/31 11:11:02;;;;;;;1.65;1.00;;;19.60;99.90;;;;;;4801240;29;20135;-50
2023/07/31 11:13:40;;;;;;;1.80;0.88;;;19.70;99.90;;;;;;4803609;29;20055;-50
2023/07/31 11:16:06;;;;;;;2.17;1.20;;;19.60;99.90;;;;;;4803864;29;20455;-50
2023/07/31 11:18:32;;;;;;;3.00;1.05;;;19.80;99.90;;;;;;4805228;29;20121;-49
2023/07/31 11:20:58;;;;;;;2.83;1.23;;;19.90;99.90;;;;;;4805677;29;20398;-48
2023/07/31 11:23:24;;;;;;;2.47;0.90;;;19.60;99.90;;;;;;4802132;29;20051;-51
2023/07/31 11:25:51;;;;;;;3.15;0.95;;;19.60;99.90;;;;;;4804573;29;20580;-49
2023/07/31 11:28:18;;;;;;;5.75;1.35;;;19.70;99.90;;;;;;4803656;29;20049;-50
2023/07/31 11:30:46;;;;;;;7.25;1.60;;;20.00;99.90;;;;;;4804084;29;20051;-51
2023/07/31 11:33:13;;;;;;;5.25;1.63;;;20.40;99.90;;;;;;4803901;29;20065;-53
2023/07/31 11:35:47;;;;;;;6.10;1.70;;;20.50;99.90;;;;;;4804026;29;20051;-48
2023/07/31 11:38:34;;;;;;;8.13;2.13;;;20.70;99.90;;;;;;4803923;29;20394;-51
2023/07/31 11:41:04;;;;;;;7.35;1.98;;;20.40;99.90;;;;;;4804206;29;20086;-53
2023/07/31 11:43:31;;;;;;;4.88;2.08;;;20.70;99.90;;;;;;4804952;29;20043;-51
2023/07/31 11:45:59;;;;;;;5.53;1.60;;;20.80;99.90;;;;;;4802779;29;20042;-49
2023/07/31 11:48:27;;;;;;;7.07;2.08;;;20.70;99.90;;;;;;4803983;29;20523;-47
2023/07/31 11:50:56;;;;;;;6.53;1.95;;;20.70;99.90;;;;;;4814107;29;20051;-51
2023/07/31 11:53:36;;;;;;;4.68;1.85;;;20.70;99.90;;;;;;4787662;29;20126;-52
2023/07/31 11:56:06;;;;;;;6.68;2.00;;;20.70;99.90;;;;;;4800017;29;20151;-49
2023/07/31 11:58:34;;;;;;;7.78;2.10;;;20.80;99.90;;;;;;4800167;29;20399;-47
2023/07/31 12:01:00;;;;;;;9.43;2.22;;;20.50;99.90;;;;;;4801114;29;20548;-46
2023/07/31 12:03:26;;;;;;;7.93;2.33;;;20.60;99.90;;;;;;4801340;29;20112;-51
2023/07/31 12:05:53;;;;;;;8.00;2.33;;;20.20;99.90;;;;;;4804526;29;20039;-49
2023/07/31 12:08:22;;;;;;;7.30;2.20;;;20.40;99.90;;;;;;4798526;29;20546;-48
2023/07/31 12:10:51;;;;;;;8.05;2.42;;;20.40;99.90;;;;;;4800926;29;20490;-48
2023/07/31 12:13:26;;;;;;;8.10;2.40;;;20.60;99.90;;;;;;4803460;29;20085;-46
2023/07/31 12:15:57;;;;;;;11.45;2.60;;;20.60;99.90;;;;;;4804377;29;20117;-51
2023/07/31 12:18:24;;;;;;;7.35;2.30;;;20.80;99.90;;;;;;4802851;29;20043;-49
2023/07/31 12:20:58;;;;;;;10.48;2.90;;;21.30;99.90;;;;;;4802829;29;20526;-50
2023/07/31 12:23:30;;;;;;;;;;;21.30;99.90;;;;;;4804518;29;20043;-46
2023/07/31 12:26:08;;;;;;;6.50;2.20;;;21.40;99.90;;;;;;4800359;29;19956;-50
2023/07/31 12:28:47;;;;;;;8.65;2.22;;;21.50;99.90;;;;;;4804816;29;20535;-48
2023/07/31 12:31:17;;;;;;;8.25;2.30;;;21.30;99.90;;;;;;4804636;29;20460;-49
2023/07/31 12:33:43;;;;;;;8.45;2.40;;;21.20;99.90;;;;;;4804410;29;20415;-48
2023/07/31 12:36:14;;;;;;;8.20;2.25;;;21.20;99.90;;;;;;4805462;29;20377;-51
2023/07/31 12:38:41;;;;;;;10.60;2.10;;;21.30;99.90;;;;;;4818695;29;20075;-47
2023/07/31 12:41:07;;;;;;;9.45;2.58;;;21.20;99.90;;;;;;4805091;29;20035;-47
2023/07/31 12:43:37;;;;;;;8.05;2.30;;;21.30;99.90;;;;;;4805599;29;20079;-51